createdAt,value
2023-03-08T00:01:25.898Z,0.60
2023-03-08T00:03:54.801Z,0.50
2023-03-08T00:06:23.206Z,0.50
2023-03-08T00:08:50.089Z,0.50
2023-03-08T00:13:45.313Z,0.50
2023-03-08T00:16:13.793Z,0.50
2023-03-08T00:18:40.929Z,0.40
2023-03-08T00:21:16.142Z,0.40
2023-03-08T00:23:43.601Z,0.40
2023-03-08T00:26:11.680Z,0.40
2023-03-08T00:28:39.080Z,0.40
2023-03-08T00:31:08.868Z,0.50
2023-03-08T00:33:36.511Z,0.50
2023-03-08T00:36:10.560Z,0.60
2023-03-08T00:38:37.716Z,0.70
2023-03-08T00:41:05.077Z,0.70
2023-03-08T00:43:33.074Z,0.70
2023-03-08T00:46:04.284Z,0.60
2023-03-08T00:48:31.305Z,0.60
2023-03-08T00:50:58.647Z,0.60
2023-03-08T00:53:25.594Z,0.60
2023-03-08T00:56:00.440Z,0.60
2023-03-08T00:58:31.394Z,0.60
2023-03-08T01:00:59.708Z,0.60
2023-03-08T01:03:27.829Z,0.50
2023-03-08T01:05:56.591Z,0.50
2023-03-08T01:08:25.176Z,0.50
2023-03-08T01:10:58.166Z,0.50
2023-03-08T01:13:27.961Z,0.50
2023-03-08T01:15:55.012Z,0.60
2023-03-08T01:18:22.205Z,0.60
2023-03-08T01:21:04.482Z,0.60
2023-03-08T01:23:32.237Z,0.60
2023-03-08T01:26:01.953Z,0.60
2023-03-08T01:28:29.704Z,0.50
2023-03-08T01:31:05.702Z,0.40
2023-03-08T01:33:34.259Z,0.40
2023-03-08T01:36:08.226Z,0.30
2023-03-08T01:38:35.801Z,0.30
2023-03-08T01:41:05.418Z,0.20
2023-03-08T01:43:35.334Z,0.20
2023-03-08T01:46:07.090Z,0.20
2023-03-08T01:48:42.681Z,0.20
2023-03-08T01:51:20.998Z,0.30
2023-03-08T01:53:48.103Z,0.40
2023-03-08T01:56:17.715Z,0.40
2023-03-08T01:58:48.298Z,0.30
2023-03-08T02:01:15.782Z,0.30
2023-03-08T02:03:42.629Z,0.30
2023-03-08T02:06:10.288Z,0.20
2023-03-08T02:08:37.183Z,0.20
2023-03-08T02:11:04.326Z,0.30
2023-03-08T02:13:31.464Z,0.40
2023-03-08T02:16:01.133Z,0.40
2023-03-08T02:18:28.878Z,0.40
2023-03-08T02:20:55.751Z,0.40
2023-03-08T02:23:24.705Z,0.40
2023-03-08T02:25:55.257Z,0.40
2023-03-08T02:28:24.209Z,0.40
2023-03-08T02:30:53.699Z,0.30
2023-03-08T02:33:21.003Z,0.30
2023-03-08T02:35:50.023Z,0.30
2023-03-08T02:38:18.926Z,0.30
2023-03-08T02:40:46.256Z,0.30
2023-03-08T02:43:13.163Z,0.30
2023-03-08T02:45:40.590Z,0.20
2023-03-08T02:48:08.906Z,0.10
2023-03-08T02:50:38.624Z,0.00
2023-03-08T02:53:06.560Z,0.00
2023-03-08T02:55:37.233Z,-0.10
2023-03-08T02:58:10.536Z,-0.10
2023-03-08T03:00:38.354Z,-0.10
2023-03-08T03:03:05.614Z,0.00
2023-03-08T03:05:32.517Z,0.00
2023-03-08T03:08:02.688Z,0.00
2023-03-08T03:10:30.297Z,0.00
2023-03-08T03:12:57.476Z,0.00
2023-03-08T03:15:29.051Z,0.00
2023-03-08T03:17:59.024Z,0.10
2023-03-08T03:20:26.128Z,0.20
2023-03-08T03:22:53.052Z,0.20
2023-03-08T03:25:24.778Z,0.20
2023-03-08T03:27:54.196Z,0.20
2023-03-08T03:30:22.008Z,0.30
2023-03-08T03:32:49.030Z,0.30
2023-03-08T03:35:20.478Z,0.40
2023-03-08T03:37:47.477Z,0.30
2023-03-08T03:40:15.616Z,0.30
2023-03-08T03:42:45.442Z,0.30
2023-03-08T03:45:14.265Z,0.30
2023-03-08T03:47:41.236Z,0.30
2023-03-08T03:50:10.054Z,0.30
2023-03-08T03:52:45.849Z,0.30
2023-03-08T03:55:12.917Z,0.30
2023-03-08T03:57:40.432Z,0.30
2023-03-08T04:00:09.123Z,0.30
2023-03-08T04:02:40.799Z,0.40
2023-03-08T04:05:11.178Z,0.40
2023-03-08T04:07:39.293Z,0.40
2023-03-08T04:10:07.675Z,0.40
2023-03-08T04:12:37.948Z,0.40
2023-03-08T04:15:05.723Z,0.40
2023-03-08T04:17:33.388Z,0.40
2023-03-08T04:20:00.446Z,0.50
2023-03-08T04:22:30.470Z,0.50
2023-03-08T04:25:06.828Z,0.50
2023-03-08T04:27:46.572Z,0.50
2023-03-08T04:30:14.038Z,0.50
2023-03-08T04:32:41.461Z,0.50
2023-03-08T04:35:08.845Z,0.50
2023-03-08T04:37:39.394Z,0.50
2023-03-08T04:40:13.196Z,0.50
2023-03-08T04:42:47.732Z,0.50
2023-03-08T04:45:18.049Z,0.60
2023-03-08T04:47:45.262Z,0.60
2023-03-08T04:50:13.087Z,0.60
2023-03-08T04:52:40.829Z,0.60
2023-03-08T04:55:08.072Z,0.60
2023-03-08T04:57:35.548Z,0.70
2023-03-08T05:00:05.920Z,0.70
2023-03-08T05:02:37.165Z,0.70
2023-03-08T05:05:06.057Z,0.70
2023-03-08T05:07:33.442Z,0.70
2023-03-08T05:10:01.841Z,0.60
2023-03-08T05:12:29.489Z,0.60
2023-03-08T05:14:59.208Z,0.70
2023-03-08T05:17:27.211Z,0.70
2023-03-08T05:19:54.022Z,0.70
2023-03-08T05:22:26.183Z,0.70
2023-03-08T05:24:56.516Z,0.70
2023-03-08T05:27:23.583Z,0.70
2023-03-08T05:29:54.470Z,0.70
2023-03-08T05:32:22.350Z,0.70
2023-03-08T05:34:52.622Z,0.60
2023-03-08T05:37:27.618Z,0.70
2023-03-08T05:39:59.483Z,0.70
2023-03-08T05:42:27.733Z,0.70
2023-03-08T05:44:55.729Z,0.70
2023-03-08T05:47:30.403Z,0.70
2023-03-08T05:49:57.822Z,0.70
2023-03-08T05:52:24.771Z,0.70
2023-03-08T05:54:52.002Z,0.70
2023-03-08T05:57:20.397Z,0.70
2023-03-08T05:59:49.073Z,0.70
2023-03-08T06:02:19.912Z,0.70
2023-03-08T06:04:49.412Z,0.80
2023-03-08T06:07:20.056Z,0.80
2023-03-08T06:09:56.410Z,0.80
2023-03-08T06:12:24.153Z,0.80
2023-03-08T06:14:54.509Z,0.90
2023-03-08T06:17:24.620Z,0.90
2023-03-08T06:19:54.058Z,0.90
2023-03-08T06:22:21.859Z,1.20
2023-03-08T06:24:50.601Z,1.40
2023-03-08T06:27:28.012Z,1.40
2023-03-08T06:30:00.935Z,1.50
2023-03-08T06:32:30.731Z,1.50
2023-03-08T06:34:57.885Z,1.60
2023-03-08T06:37:25.007Z,1.40
2023-03-08T06:39:52.058Z,1.40
2023-03-08T06:42:22.239Z,1.30
2023-03-08T06:44:53.250Z,1.30
2023-03-08T06:47:20.378Z,1.30
2023-03-08T06:49:47.182Z,1.40
2023-03-08T06:52:14.166Z,1.40
2023-03-08T06:54:41.365Z,1.50
2023-03-08T06:57:08.203Z,1.50
2023-03-08T06:59:35.218Z,1.60
2023-03-08T07:02:02.151Z,1.60
2023-03-08T07:04:29.001Z,1.70
2023-03-08T07:06:55.842Z,1.70
2023-03-08T07:09:22.719Z,1.80
2023-03-08T07:11:49.587Z,1.90
2023-03-08T07:14:16.459Z,2.00
2023-03-08T07:16:43.315Z,2.10
2023-03-08T07:19:10.209Z,2.10
2023-03-08T07:21:37.271Z,2.20
2023-03-08T07:24:04.381Z,2.30
2023-03-08T07:26:31.329Z,2.40
2023-03-08T07:28:58.315Z,2.50
2023-03-08T07:31:26.615Z,2.70
2023-03-08T07:33:53.414Z,2.70
2023-03-08T07:36:20.265Z,2.60
2023-03-08T07:38:47.271Z,2.70
2023-03-08T07:41:14.156Z,2.60
2023-03-08T07:43:41.012Z,2.60
2023-03-08T07:46:17.198Z,2.70
2023-03-08T07:48:44.038Z,3.10
2023-03-08T07:51:11.155Z,3.30
2023-03-08T07:53:38.557Z,3.30
2023-03-08T07:56:06.516Z,3.20
2023-03-08T07:58:33.429Z,3.30
2023-03-08T08:01:00.590Z,3.30
2023-03-08T08:03:29.835Z,3.30
2023-03-08T08:05:56.957Z,3.30
2023-03-08T08:08:23.734Z,3.40
2023-03-08T08:10:50.665Z,3.50
2023-03-08T08:13:17.529Z,3.50
2023-03-08T08:15:44.372Z,3.70
2023-03-08T08:18:14.124Z,4.40
2023-03-08T08:20:41.338Z,4.60
2023-03-08T08:23:08.261Z,4.80
2023-03-08T08:25:35.642Z,4.90
2023-03-08T08:28:02.453Z,4.90
2023-03-08T08:30:29.252Z,4.70
2023-03-08T08:32:56.177Z,4.70
2023-03-08T08:35:31.103Z,4.70
2023-03-08T08:38:04.175Z,4.90
2023-03-08T08:40:31.242Z,5.00
2023-03-08T08:42:58.080Z,5.00
2023-03-08T08:45:24.913Z,5.10
2023-03-08T08:47:51.775Z,5.10
2023-03-08T08:50:18.703Z,5.10
2023-03-08T08:52:45.869Z,5.10
2023-03-08T08:55:12.744Z,5.10
2023-03-08T08:57:39.789Z,5.10
2023-03-08T09:00:09.486Z,5.10
2023-03-08T09:02:37.001Z,5.10
2023-03-08T09:05:03.967Z,5.20
2023-03-08T09:07:30.871Z,5.10
2023-03-08T09:10:01.828Z,5.00
2023-03-08T09:12:29.757Z,5.00
2023-03-08T09:14:56.551Z,4.80
2023-03-08T09:17:23.377Z,4.80
2023-03-08T09:19:50.377Z,4.80
2023-03-08T09:22:17.447Z,4.80
2023-03-08T09:24:45.859Z,4.80
2023-03-08T09:27:12.730Z,4.70
2023-03-08T09:29:39.509Z,4.70
2023-03-08T09:32:07.015Z,4.60
2023-03-08T09:34:34.024Z,4.70
2023-03-08T09:37:00.771Z,4.60
2023-03-08T09:39:27.536Z,4.60
2023-03-08T09:41:57.183Z,4.70
2023-03-08T09:45:07.476Z,4.70
2023-03-08T09:47:46.855Z,4.60
2023-03-08T09:50:13.761Z,4.70
2023-03-08T09:53:00.338Z,4.60
2023-03-08T09:55:34.656Z,4.70
2023-03-08T09:58:51.018Z,4.70
2023-03-08T10:01:34.706Z,4.70
2023-03-08T10:04:24.781Z,4.70
2023-03-08T10:07:21.624Z,4.70
2023-03-08T10:10:14.664Z,4.70
2023-03-08T10:13:19.705Z,4.70
2023-03-08T10:15:51.482Z,4.80
2023-03-08T10:18:22.024Z,5.00
2023-03-08T10:20:49.348Z,5.00
2023-03-08T10:23:21.964Z,5.60
2023-03-08T10:25:50.258Z,6.40
2023-03-08T10:28:18.903Z,6.80
2023-03-08T10:31:00.798Z,7.10
2023-03-08T10:33:33.553Z,7.40
2023-03-08T10:36:19.279Z,7.60
2023-03-08T10:39:07.507Z,7.70
2023-03-08T10:41:52.732Z,7.90
2023-03-08T10:44:36.842Z,8.10
2023-03-08T10:47:23.357Z,8.40
2023-03-08T10:50:10.926Z,8.70
2023-03-08T10:52:37.747Z,9.00
2023-03-08T10:55:10.319Z,9.30
2023-03-08T10:57:37.860Z,9.60
2023-03-08T11:00:36.816Z,9.70
2023-03-08T11:03:24.785Z,9.90
2023-03-08T11:06:03.712Z,10.60
2023-03-08T11:08:36.873Z,11.00
2023-03-08T11:11:08.145Z,11.10
2023-03-08T11:13:36.685Z,11.00
2023-03-08T11:16:34.787Z,11.00
2023-03-08T11:19:38.108Z,11.40
2023-03-08T11:22:11.990Z,11.80
2023-03-08T11:25:13.112Z,12.30
2023-03-08T11:27:54.185Z,12.20
2023-03-08T11:30:32.537Z,12.60
2023-03-08T11:33:14.670Z,12.70
2023-03-08T11:36:22.966Z,12.60
2023-03-08T11:39:10.687Z,12.30
2023-03-08T11:41:44.945Z,12.10
2023-03-08T11:44:31.307Z,11.90
2023-03-08T11:47:29.649Z,12.00
2023-03-08T11:50:43.875Z,11.70
2023-03-08T11:53:42.261Z,11.30
2023-03-08T11:56:31.086Z,11.30
2023-03-08T11:59:10.218Z,11.20
2023-03-08T12:01:48.481Z,11.20
2023-03-08T12:05:04.211Z,11.10
2023-03-08T12:07:48.083Z,11.10
2023-03-08T12:10:21.252Z,11.30
2023-03-08T12:12:57.140Z,11.20
2023-03-08T12:15:39.458Z,11.00
2023-03-08T12:18:31.287Z,11.00
2023-03-08T12:21:15.004Z,11.10
2023-03-08T12:23:56.699Z,10.90
2023-03-08T12:26:29.933Z,10.90
2023-03-08T12:29:02.225Z,10.60
2023-03-08T12:31:33.402Z,10.40
2023-03-08T12:34:00.975Z,10.50
2023-03-08T12:36:41.516Z,10.40
2023-03-08T12:39:26.449Z,10.40
2023-03-08T12:42:38.934Z,10.40
2023-03-08T12:45:28.026Z,10.40
2023-03-08T12:48:04.316Z,10.40
2023-03-08T12:50:41.362Z,10.60
2023-03-08T12:53:29.480Z,10.70
2023-03-08T12:56:19.237Z,10.40
2023-03-08T12:58:55.993Z,10.20
2023-03-08T13:01:43.017Z,10.10
2023-03-08T13:04:41.042Z,10.00
2023-03-08T13:07:31.846Z,10.00
2023-03-08T13:09:58.894Z,9.80
2023-03-08T13:12:54.004Z,9.70
2023-03-08T13:15:24.608Z,9.60
2023-03-08T13:18:17.139Z,9.60
2023-03-08T13:21:24.706Z,9.60
2023-03-08T13:23:55.720Z,9.60
2023-03-08T13:26:55.478Z,9.60
2023-03-08T13:29:22.472Z,9.60
2023-03-08T13:31:50.133Z,9.60
2023-03-08T13:34:31.710Z,9.60
2023-03-08T13:36:59.011Z,9.60
2023-03-08T13:39:29.087Z,9.60
2023-03-08T13:42:08.621Z,9.60
2023-03-08T13:44:35.843Z,9.50
2023-03-08T13:47:17.434Z,9.30
2023-03-08T13:49:45.759Z,9.10
2023-03-08T13:52:22.951Z,8.90
2023-03-08T13:54:53.297Z,8.70
2023-03-08T13:57:24.834Z,8.70
2023-03-08T14:00:00.961Z,8.80
2023-03-08T14:02:30.656Z,8.80
2023-03-08T14:04:58.866Z,8.90
2023-03-08T14:07:32.060Z,8.90
2023-03-08T14:09:59.792Z,8.90
2023-03-08T14:12:31.213Z,8.90
2023-03-08T14:15:01.994Z,8.90
2023-03-08T14:17:31.859Z,8.80
2023-03-08T14:20:07.004Z,8.80
2023-03-08T14:22:39.876Z,8.90
2023-03-08T14:25:20.654Z,8.90
2023-03-08T14:27:47.607Z,8.90
2023-03-08T14:30:29.168Z,8.90
2023-03-08T14:33:02.873Z,8.80
2023-03-08T14:35:33.566Z,8.70
2023-03-08T14:38:01.248Z,8.70
2023-03-08T14:40:33.822Z,8.60
2023-03-08T14:43:04.644Z,8.70
2023-03-08T14:45:50.423Z,8.70
2023-03-08T14:48:25.045Z,8.70
2023-03-08T14:51:03.775Z,8.70
2023-03-08T14:53:35.421Z,8.70
2023-03-08T14:56:17.310Z,8.70
2023-03-08T14:58:48.964Z,8.70
2023-03-08T15:01:31.168Z,8.70
2023-03-08T15:03:58.946Z,8.80
2023-03-08T15:06:32.646Z,8.80
2023-03-08T15:09:01.370Z,8.70
2023-03-08T15:11:31.516Z,8.60
2023-03-08T15:14:02.138Z,8.50
2023-03-08T15:16:29.018Z,8.40
2023-03-08T15:18:55.949Z,8.30
2023-03-08T15:21:25.236Z,8.30
2023-03-08T15:23:53.029Z,8.20
2023-03-08T15:26:26.666Z,8.00
2023-03-08T15:28:54.455Z,7.90
2023-03-08T15:31:22.130Z,7.80
2023-03-08T15:33:48.976Z,7.80
2023-03-08T15:36:18.318Z,7.80
2023-03-08T15:39:01.281Z,7.70
2023-03-08T15:41:30.422Z,7.70
2023-03-08T15:43:57.271Z,7.70
2023-03-08T15:46:24.088Z,7.60
2023-03-08T15:48:51.272Z,7.60
2023-03-08T15:51:20.968Z,7.60
2023-03-08T15:53:49.187Z,7.60
2023-03-08T15:56:16.381Z,7.60
2023-03-08T15:58:43.429Z,7.50
2023-03-08T16:01:11.957Z,7.50
2023-03-08T16:03:39.177Z,7.40
2023-03-08T16:06:10.777Z,7.40
2023-03-08T16:08:38.626Z,7.40
2023-03-08T16:11:14.335Z,7.40
2023-03-08T16:13:41.504Z,7.40
2023-03-08T16:16:09.331Z,7.30
2023-03-08T16:18:37.066Z,7.30
2023-03-08T16:21:10.486Z,7.30
2023-03-08T16:23:39.222Z,7.30
2023-03-08T16:26:16.727Z,7.20
2023-03-08T16:28:47.711Z,7.30
2023-03-08T16:31:16.152Z,7.20
2023-03-08T16:33:43.403Z,7.20
2023-03-08T16:36:11.977Z,7.20
2023-03-08T16:38:39.188Z,7.20
2023-03-08T16:41:14.330Z,7.20
2023-03-08T16:43:47.735Z,7.20
2023-03-08T16:46:18.552Z,7.10
2023-03-08T16:48:49.101Z,7.10
2023-03-08T16:51:18.506Z,7.10
2023-03-08T16:53:45.281Z,7.10
2023-03-08T16:56:25.543Z,7.10
2023-03-08T16:58:53.432Z,7.10
2023-03-08T17:01:20.935Z,7.00
2023-03-08T17:03:49.020Z,7.00
2023-03-08T17:06:20.442Z,7.10
2023-03-08T17:08:48.257Z,7.00
2023-03-08T17:11:20.948Z,7.00
2023-03-08T17:13:52.083Z,7.00
2023-03-08T17:16:20.886Z,7.00
2023-03-08T17:18:48.766Z,7.10
2023-03-08T17:21:16.486Z,7.10
2023-03-08T17:23:43.690Z,7.00
2023-03-08T17:26:11.741Z,7.00
2023-03-08T17:28:39.156Z,7.00
2023-03-08T17:31:10.849Z,7.00
2023-03-08T17:33:38.202Z,7.00
2023-03-08T17:36:06.302Z,7.00
2023-03-08T17:38:33.923Z,7.00
2023-03-08T17:41:05.357Z,7.00
2023-03-08T17:43:32.236Z,7.00
2023-03-08T17:46:12.403Z,7.00
2023-03-08T17:48:39.470Z,7.00
2023-03-08T17:51:15.499Z,6.90
2023-03-08T17:53:43.132Z,6.90
2023-03-08T17:56:13.394Z,6.90
2023-03-08T17:58:41.070Z,6.80
2023-03-08T18:01:09.054Z,6.80
2023-03-08T18:03:36.104Z,6.80
2023-03-08T18:06:03.214Z,6.80
2023-03-08T18:08:34.729Z,6.90
2023-03-08T18:11:01.676Z,6.90
2023-03-08T18:13:28.592Z,6.80
2023-03-08T18:15:55.431Z,6.80
2023-03-08T18:18:22.501Z,6.90
2023-03-08T18:20:49.280Z,6.90
2023-03-08T18:23:16.251Z,6.90
2023-03-08T18:25:43.050Z,6.90
2023-03-08T18:28:10.227Z,6.90
2023-03-08T18:30:38.251Z,6.90
2023-03-08T18:33:05.775Z,6.90
2023-03-08T18:35:32.754Z,6.90
2023-03-08T18:38:00.523Z,6.90
2023-03-08T18:40:29.534Z,6.90
2023-03-08T18:42:57.118Z,6.90
2023-03-08T18:45:24.293Z,6.90
2023-03-08T18:47:51.912Z,6.90
2023-03-08T18:50:18.948Z,6.90
2023-03-08T18:52:46.510Z,6.90
2023-03-08T18:55:13.740Z,6.90
2023-03-08T18:57:40.748Z,6.80
2023-03-08T19:00:10.614Z,6.80
2023-03-08T19:02:37.744Z,6.80
2023-03-08T19:05:04.866Z,6.80
2023-03-08T19:07:31.636Z,6.80
2023-03-08T19:10:00.324Z,7.00
2023-03-08T19:12:28.802Z,6.90
2023-03-08T19:14:55.646Z,6.80
2023-03-08T19:17:22.623Z,6.90
2023-03-08T19:19:49.356Z,7.40
2023-03-08T19:22:16.177Z,7.70
2023-03-08T19:24:43.006Z,7.90
2023-03-08T19:27:09.854Z,8.20
2023-03-08T19:29:36.604Z,8.30
2023-03-08T19:32:05.868Z,8.40
2023-03-08T19:34:35.678Z,8.40
2023-03-08T19:37:04.184Z,8.50
2023-03-08T19:39:34.083Z,8.50
2023-03-08T19:42:03.591Z,8.50
2023-03-08T19:44:31.734Z,8.50
2023-03-08T19:46:59.645Z,8.50
2023-03-08T19:49:29.639Z,8.50
2023-03-08T19:51:58.355Z,8.40
2023-03-08T19:54:26.206Z,8.40
2023-03-08T19:56:54.006Z,8.40
2023-03-08T19:59:22.550Z,8.50
2023-03-08T20:01:53.792Z,8.40
2023-03-08T20:04:22.030Z,8.40
2023-03-08T20:06:50.579Z,8.40
2023-03-08T20:09:21.514Z,8.50
2023-03-08T20:11:57.428Z,8.50
2023-03-08T20:14:27.274Z,8.40
2023-03-08T20:16:55.643Z,8.30
2023-03-08T20:19:22.654Z,8.30
2023-03-08T20:21:49.412Z,8.30
2023-03-08T20:24:18.449Z,8.40
2023-03-08T20:26:45.889Z,8.50
2023-03-08T20:29:12.795Z,8.50
2023-03-08T20:31:39.678Z,8.50
2023-03-08T20:34:06.433Z,8.50
2023-03-08T20:36:33.419Z,8.60
2023-03-08T20:39:00.422Z,8.60
2023-03-08T20:41:28.285Z,8.60
2023-03-08T20:43:57.842Z,8.50
2023-03-08T20:46:29.462Z,8.60
2023-03-08T20:48:57.211Z,8.60
2023-03-08T20:51:24.409Z,8.60
2023-03-08T20:53:53.394Z,8.60
2023-03-08T20:56:22.331Z,8.60
2023-03-08T20:58:49.208Z,8.60
2023-03-08T21:01:22.734Z,8.60
2023-03-08T21:03:49.774Z,8.60
2023-03-08T21:06:20.016Z,8.60
2023-03-08T21:08:48.625Z,8.60
2023-03-08T21:11:16.606Z,8.70
2023-03-08T21:13:43.523Z,8.70
2023-03-08T21:16:14.188Z,8.60
2023-03-08T21:18:45.881Z,8.50
2023-03-08T21:21:30.159Z,8.60
2023-03-08T21:23:58.724Z,8.60
2023-03-08T21:26:27.185Z,8.60
2023-03-08T21:28:56.935Z,8.60
2023-03-08T21:31:24.432Z,8.60
2023-03-08T21:33:53.473Z,8.60
2023-03-08T21:36:20.660Z,8.60
2023-03-08T21:38:54.924Z,8.70
2023-03-08T21:41:31.257Z,8.70
2023-03-08T21:43:58.717Z,8.70
2023-03-08T21:46:25.871Z,8.70
2023-03-08T21:48:54.463Z,8.80
2023-03-08T21:51:21.580Z,8.80
2023-03-08T21:53:49.641Z,8.80
2023-03-08T21:56:18.167Z,8.80
2023-03-08T21:58:45.596Z,8.90
2023-03-08T22:01:27.200Z,8.90
2023-03-08T22:03:54.551Z,8.90
2023-03-08T22:06:22.537Z,9.00
2023-03-08T22:08:50.013Z,9.10
2023-03-08T22:11:18.049Z,9.10
2023-03-08T22:13:52.379Z,9.10
2023-03-08T22:16:19.882Z,9.00
2023-03-08T22:18:47.654Z,8.90
2023-03-08T22:21:14.482Z,8.90
2023-03-08T22:23:41.436Z,8.80
2023-03-08T22:26:09.464Z,8.70
2023-03-08T22:28:37.660Z,8.70
2023-03-08T22:31:12.857Z,8.60
2023-03-08T22:33:40.524Z,8.60
2023-03-08T22:36:09.496Z,8.40
2023-03-08T22:38:37.142Z,8.40
2023-03-08T22:41:13.541Z,8.30
2023-03-08T22:43:41.432Z,8.20
2023-03-08T22:46:16.254Z,8.20
2023-03-08T22:48:45.639Z,8.10
2023-03-08T22:51:13.294Z,8.10
2023-03-08T22:53:40.871Z,8.10
2023-03-08T22:56:16.453Z,8.20
2023-03-08T22:58:43.445Z,8.20
2023-03-08T23:01:19.482Z,8.30
2023-03-08T23:03:49.406Z,8.30
2023-03-08T23:06:17.666Z,8.40
2023-03-08T23:08:44.848Z,8.40
2023-03-08T23:11:12.501Z,8.40
2023-03-08T23:13:41.191Z,8.50
2023-03-08T23:16:08.711Z,8.50
2023-03-08T23:18:35.673Z,8.50
2023-03-08T23:21:08.658Z,8.50
2023-03-08T23:23:36.029Z,8.50
2023-03-08T23:26:05.362Z,8.50
2023-03-08T23:28:36.378Z,8.50
2023-03-08T23:31:09.921Z,8.50
2023-03-08T23:33:37.165Z,8.50
2023-03-08T23:36:04.649Z,8.60
2023-03-08T23:38:31.527Z,8.60
2023-03-08T23:40:59.020Z,8.60
2023-03-08T23:43:25.954Z,8.60
2023-03-08T23:45:53.308Z,8.70
2023-03-08T23:48:20.149Z,8.70
2023-03-08T23:50:47.014Z,8.70
2023-03-08T23:53:13.945Z,8.70
2023-03-08T23:55:42.236Z,8.80
2023-03-08T23:58:09.279Z,8.80
